sensor_id;sensor_type;location;lat;lon;timestamp;temperature;humidity
55711;DHT22;41612;51.994;5.880;2023-08-06T00:01:58;17.20;77.30
55711;DHT22;41612;51.994;5.880;2023-08-06T00:04:24;17.20;77.10
55711;DHT22;41612;51.994;5.880;2023-08-06T00:06:50;17.20;77.10
55711;DHT22;41612;51.994;5.880;2023-08-06T00:09:16;17.20;77.10
55711;DHT22;41612;51.994;5.880;2023-08-06T00:11:42;17.20;77.10
55711;DHT22;41612;51.994;5.880;2023-08-06T00:14:09;17.20;77.10
55711;DHT22;41612;51.994;5.880;2023-08-06T00:16:43;17.20;77.10
55711;DHT22;41612;51.994;5.880;2023-08-06T00:19:10;17.20;77.10
55711;DHT22;41612;51.994;5.880;2023-08-06T00:21:36;17.20;77.10
55711;DHT22;41612;51.994;5.880;2023-08-06T00:24:02;17.20;77.10
55711;DHT22;41612;51.994;5.880;2023-08-06T00:26:28;17.20;77.10
55711;DHT22;41612;51.994;5.880;2023-08-06T00:28:57;17.20;76.90
55711;DHT22;41612;51.994;5.880;2023-08-06T00:31:23;17.20;76.90
55711;DHT22;41612;51.994;5.880;2023-08-06T00:33:50;17.20;76.90
55711;DHT22;41612;51.994;5.880;2023-08-06T00:36:16;17.20;76.90
55711;DHT22;41612;51.994;5.880;2023-08-06T00:38:42;17.20;76.90
55711;DHT22;41612;51.994;5.880;2023-08-06T00:41:08;17.20;76.90
55711;DHT22;41612;51.994;5.880;2023-08-06T00:43:37;17.20;76.80
55711;DHT22;41612;51.994;5.880;2023-08-06T00:46:17;17.20;76.80
55711;DHT22;41612;51.994;5.880;2023-08-06T00:48:46;17.20;76.90
55711;DHT22;41612;51.994;5.880;2023-08-06T00:51:28;17.20;76.90
55711;DHT22;41612;51.994;5.880;2023-08-06T00:54:02;17.20;77.00
55711;DHT22;41612;51.994;5.880;2023-08-06T00:56:38;17.10;77.00
55711;DHT22;41612;51.994;5.880;2023-08-06T00:59:12;17.20;77.10
55711;DHT22;41612;51.994;5.880;2023-08-06T01:01:41;17.10;77.10
55711;DHT22;41612;51.994;5.880;2023-08-06T01:04:20;17.10;77.10
55711;DHT22;41612;51.994;5.880;2023-08-06T01:07:37;17.10;77.10
55711;DHT22;41612;51.994;5.880;2023-08-06T01:10:23;17.00;77.10
55711;DHT22;41612;51.994;5.880;2023-08-06T01:13:24;17.00;77.20
55711;DHT22;41612;51.994;5.880;2023-08-06T01:16:02;17.00;77.30
55711;DHT22;41612;51.994;5.880;2023-08-06T01:18:32;17.00;77.40
55711;DHT22;41612;51.994;5.880;2023-08-06T01:21:08;16.90;77.50
55711;DHT22;41612;51.994;5.880;2023-08-06T01:23:35;16.90;77.70
55711;DHT22;41612;51.994;5.880;2023-08-06T01:26:24;16.90;77.80
55711;DHT22;41612;51.994;5.880;2023-08-06T01:29:25;16.90;77.80
55711;DHT22;41612;51.994;5.880;2023-08-06T01:31:58;16.90;77.90
55711;DHT22;41612;51.994;5.880;2023-08-06T01:34:42;16.90;77.90
55711;DHT22;41612;51.994;5.880;2023-08-06T01:37:31;16.90;77.80
55711;DHT22;41612;51.994;5.880;2023-08-06T01:39:58;16.90;77.90
55711;DHT22;41612;51.994;5.880;2023-08-06T01:42:30;16.90;77.90
55711;DHT22;41612;51.994;5.880;2023-08-06T01:45:24;16.90;77.90
55711;DHT22;41612;51.994;5.880;2023-08-06T01:47:53;16.90;77.90
55711;DHT22;41612;51.994;5.880;2023-08-06T01:50:30;16.90;77.90
55711;DHT22;41612;51.994;5.880;2023-08-06T01:53:00;16.90;77.80
55711;DHT22;41612;51.994;5.880;2023-08-06T01:55:41;16.90;77.80
55711;DHT22;41612;51.994;5.880;2023-08-06T01:58:21;16.90;77.80
55711;DHT22;41612;51.994;5.880;2023-08-06T02:01:17;16.90;77.80
55711;DHT22;41612;51.994;5.880;2023-08-06T02:03:58;16.90;77.80
55711;DHT22;41612;51.994;5.880;2023-08-06T02:06:51;16.90;77.90
55711;DHT22;41612;51.994;5.880;2023-08-06T02:09:23;16.90;77.90
55711;DHT22;41612;51.994;5.880;2023-08-06T02:12:04;16.90;77.80
55711;DHT22;41612;51.994;5.880;2023-08-06T02:14:37;17.00;77.80
55711;DHT22;41612;51.994;5.880;2023-08-06T02:17:20;16.90;77.70
55711;DHT22;41612;51.994;5.880;2023-08-06T02:19:49;16.90;77.70
55711;DHT22;41612;51.994;5.880;2023-08-06T02:22:31;16.90;77.70
55711;DHT22;41612;51.994;5.880;2023-08-06T02:25:00;16.90;77.80
55711;DHT22;41612;51.994;5.880;2023-08-06T02:27:37;16.90;77.70
55711;DHT22;41612;51.994;5.880;2023-08-06T02:30:12;16.90;77.80
55711;DHT22;41612;51.994;5.880;2023-08-06T02:32:44;16.90;77.80
55711;DHT22;41612;51.994;5.880;2023-08-06T02:35:30;16.90;77.80
55711;DHT22;41612;51.994;5.880;2023-08-06T02:38:01;16.90;77.80
55711;DHT22;41612;51.994;5.880;2023-08-06T02:41:01;16.90;78.00
55711;DHT22;41612;51.994;5.880;2023-08-06T02:43:36;16.90;78.00
55711;DHT22;41612;51.994;5.880;2023-08-06T02:46:11;16.80;78.10
55711;DHT22;41612;51.994;5.880;2023-08-06T02:48:56;16.80;78.00
55711;DHT22;41612;51.994;5.880;2023-08-06T02:51:24;16.80;78.00
55711;DHT22;41612;51.994;5.880;2023-08-06T02:54:20;16.80;77.90
55711;DHT22;41612;51.994;5.880;2023-08-06T02:57:01;16.80;77.90
55711;DHT22;41612;51.994;5.880;2023-08-06T02:59:33;16.80;77.90
55711;DHT22;41612;51.994;5.880;2023-08-06T03:02:08;16.80;77.90
55711;DHT22;41612;51.994;5.880;2023-08-06T03:04:57;16.80;77.90
55711;DHT22;41612;51.994;5.880;2023-08-06T03:07:43;16.80;77.90
55711;DHT22;41612;51.994;5.880;2023-08-06T03:10:18;16.80;77.90
55711;DHT22;41612;51.994;5.880;2023-08-06T03:15:59;16.80;78.00
55711;DHT22;41612;51.994;5.880;2023-08-06T03:18:28;16.80;78.00
55711;DHT22;41612;51.994;5.880;2023-08-06T03:21:02;16.80;78.00
55711;DHT22;41612;51.994;5.880;2023-08-06T03:23:33;16.80;78.00
55711;DHT22;41612;51.994;5.880;2023-08-06T03:26:24;16.80;78.20
55711;DHT22;41612;51.994;5.880;2023-08-06T03:29:11;16.80;78.10
55711;DHT22;41612;51.994;5.880;2023-08-06T03:31:58;16.80;78.10
55711;DHT22;41612;51.994;5.880;2023-08-06T03:38:12;16.80;78.00
55711;DHT22;41612;51.994;5.880;2023-08-06T03:41:07;16.80;77.90
55711;DHT22;41612;51.994;5.880;2023-08-06T03:43:43;16.80;77.90
55711;DHT22;41612;51.994;5.880;2023-08-06T03:46:26;16.80;78.00
55711;DHT22;41612;51.994;5.880;2023-08-06T03:48:58;16.80;77.90
55711;DHT22;41612;51.994;5.880;2023-08-06T03:54:50;16.80;77.90
55711;DHT22;41612;51.994;5.880;2023-08-06T03:57:25;16.80;78.00
55711;DHT22;41612;51.994;5.880;2023-08-06T04:03:05;16.80;77.90
55711;DHT22;41612;51.994;5.880;2023-08-06T04:05:38;16.70;78.00
55711;DHT22;41612;51.994;5.880;2023-08-06T04:08:32;16.70;77.90
55711;DHT22;41612;51.994;5.880;2023-08-06T04:11:16;16.70;77.90
55711;DHT22;41612;51.994;5.880;2023-08-06T04:14:01;16.70;77.90
55711;DHT22;41612;51.994;5.880;2023-08-06T04:16:38;16.70;77.90
55711;DHT22;41612;51.994;5.880;2023-08-06T04:19:15;16.80;77.80
55711;DHT22;41612;51.994;5.880;2023-08-06T04:21:57;16.80;77.90
55711;DHT22;41612;51.994;5.880;2023-08-06T04:30:49;16.80;77.70
55711;DHT22;41612;51.994;5.880;2023-08-06T04:33:29;16.80;77.70
55711;DHT22;41612;51.994;5.880;2023-08-06T04:36:13;16.80;77.70
55711;DHT22;41612;51.994;5.880;2023-08-06T04:38:42;16.80;77.60
55711;DHT22;41612;51.994;5.880;2023-08-06T04:41:11;16.80;77.50
55711;DHT22;41612;51.994;5.880;2023-08-06T04:44:06;16.90;77.50
55711;DHT22;41612;51.994;5.880;2023-08-06T04:46:43;16.90;77.50
55711;DHT22;41612;51.994;5.880;2023-08-06T04:49:29;16.90;77.50
55711;DHT22;41612;51.994;5.880;2023-08-06T04:52:19;16.90;77.50
55711;DHT22;41612;51.994;5.880;2023-08-06T04:54:59;16.90;77.40
55711;DHT22;41612;51.994;5.880;2023-08-06T04:57:30;16.90;77.20
55711;DHT22;41612;51.994;5.880;2023-08-06T05:00:44;17.00;77.20
55711;DHT22;41612;51.994;5.880;2023-08-06T05:03:14;17.00;77.10
55711;DHT22;41612;51.994;5.880;2023-08-06T05:05:42;17.00;77.00
55711;DHT22;41612;51.994;5.880;2023-08-06T05:08:18;17.10;76.90
55711;DHT22;41612;51.994;5.880;2023-08-06T05:10:52;17.10;76.70
55711;DHT22;41612;51.994;5.880;2023-08-06T05:16:30;17.20;76.40
55711;DHT22;41612;51.994;5.880;2023-08-06T05:19:01;17.30;76.30
55711;DHT22;41612;51.994;5.880;2023-08-06T05:21:32;17.30;76.10
55711;DHT22;41612;51.994;5.880;2023-08-06T05:24:27;17.30;76.20
55711;DHT22;41612;51.994;5.880;2023-08-06T05:27:37;17.40;76.20
55711;DHT22;41612;51.994;5.880;2023-08-06T05:31:04;17.50;75.70
55711;DHT22;41612;51.994;5.880;2023-08-06T05:33:42;17.60;75.30
55711;DHT22;41612;51.994;5.880;2023-08-06T05:36:35;17.60;75.30
55711;DHT22;41612;51.994;5.880;2023-08-06T05:39:33;17.60;75.40
55711;DHT22;41612;51.994;5.880;2023-08-06T05:42:18;17.70;75.00
55711;DHT22;41612;51.994;5.880;2023-08-06T05:44:58;17.70;75.00
55711;DHT22;41612;51.994;5.880;2023-08-06T05:47:29;17.70;74.80
55711;DHT22;41612;51.994;5.880;2023-08-06T05:52:46;17.70;74.50
55711;DHT22;41612;51.994;5.880;2023-08-06T05:55:28;17.80;74.40
55711;DHT22;41612;51.994;5.880;2023-08-06T05:58:24;17.80;74.40
55711;DHT22;41612;51.994;5.880;2023-08-06T06:01:17;17.80;74.30
55711;DHT22;41612;51.994;5.880;2023-08-06T06:03:56;17.80;74.20
55711;DHT22;41612;51.994;5.880;2023-08-06T06:23:00;17.80;74.10
55711;DHT22;41612;51.994;5.880;2023-08-06T06:25:29;17.80;74.20
55711;DHT22;41612;51.994;5.880;2023-08-06T06:28:20;17.80;74.30
55711;DHT22;41612;51.994;5.880;2023-08-06T06:30:47;17.80;74.40
55711;DHT22;41612;51.994;5.880;2023-08-06T06:33:13;17.80;74.40
55711;DHT22;41612;51.994;5.880;2023-08-06T06:35:39;17.90;74.10
55711;DHT22;41612;51.994;5.880;2023-08-06T06:38:05;17.90;73.90
55711;DHT22;41612;51.994;5.880;2023-08-06T06:40:31;17.90;73.80
55711;DHT22;41612;51.994;5.880;2023-08-06T06:42:59;17.90;73.80
55711;DHT22;41612;51.994;5.880;2023-08-06T06:45:25;17.80;74.00
55711;DHT22;41612;51.994;5.880;2023-08-06T06:47:51;17.80;74.10
55711;DHT22;41612;51.994;5.880;2023-08-06T06:50:16;17.80;74.30
55711;DHT22;41612;51.994;5.880;2023-08-06T06:52:42;17.80;74.40
55711;DHT22;41612;51.994;5.880;2023-08-06T06:55:08;17.80;74.40
55711;DHT22;41612;51.994;5.880;2023-08-06T06:57:34;17.80;74.40
55711;DHT22;41612;51.994;5.880;2023-08-06T07:00:00;17.80;74.40
55711;DHT22;41612;51.994;5.880;2023-08-06T07:02:34;17.80;74.40
55711;DHT22;41612;51.994;5.880;2023-08-06T07:05:00;17.70;74.60
55711;DHT22;41612;51.994;5.880;2023-08-06T07:07:35;17.70;74.70
55711;DHT22;41612;51.994;5.880;2023-08-06T07:10:03;17.70;74.90
55711;DHT22;41612;51.994;5.880;2023-08-06T07:12:34;17.70;74.90
55711;DHT22;41612;51.994;5.880;2023-08-06T07:15:06;17.70;75.00
55711;DHT22;41612;51.994;5.880;2023-08-06T07:17:46;17.70;75.00
55711;DHT22;41612;51.994;5.880;2023-08-06T07:20:22;17.70;74.90
55711;DHT22;41612;51.994;5.880;2023-08-06T07:23:01;17.70;74.90
55711;DHT22;41612;51.994;5.880;2023-08-06T07:25:34;17.70;74.80
55711;DHT22;41612;51.994;5.880;2023-08-06T07:28:09;17.80;74.90
55711;DHT22;41612;51.994;5.880;2023-08-06T07:30:38;17.70;74.80
55711;DHT22;41612;51.994;5.880;2023-08-06T07:33:15;17.70;74.80
55711;DHT22;41612;51.994;5.880;2023-08-06T07:35:41;17.80;74.60
55711;DHT22;41612;51.994;5.880;2023-08-06T07:38:18;17.90;74.30
55711;DHT22;41612;51.994;5.880;2023-08-06T07:41:04;17.90;74.10
55711;DHT22;41612;51.994;5.880;2023-08-06T07:43:35;18.00;73.80
55711;DHT22;41612;51.994;5.880;2023-08-06T07:46:07;18.00;73.70
55711;DHT22;41612;51.994;5.880;2023-08-06T07:51:41;17.90;74.10
55711;DHT22;41612;51.994;5.880;2023-08-06T07:54:08;18.00;74.00
55711;DHT22;41612;51.994;5.880;2023-08-06T07:56:34;18.10;73.60
55711;DHT22;41612;51.994;5.880;2023-08-06T07:59:02;18.30;73.20
55711;DHT22;41612;51.994;5.880;2023-08-06T08:01:28;18.40;72.80
55711;DHT22;41612;51.994;5.880;2023-08-06T08:03:53;18.50;72.30
55711;DHT22;41612;51.994;5.880;2023-08-06T08:06:20;18.70;71.90
55711;DHT22;41612;51.994;5.880;2023-08-06T08:08:46;18.70;71.50
55711;DHT22;41612;51.994;5.880;2023-08-06T08:11:13;18.80;71.30
55711;DHT22;41612;51.994;5.880;2023-08-06T08:13:39;18.90;71.00
55711;DHT22;41612;51.994;5.880;2023-08-06T08:16:05;18.90;70.80
55711;DHT22;41612;51.994;5.880;2023-08-06T08:18:31;19.00;70.60
55711;DHT22;41612;51.994;5.880;2023-08-06T08:20:57;19.10;70.50
55711;DHT22;41612;51.994;5.880;2023-08-06T08:23:23;19.10;70.30
55711;DHT22;41612;51.994;5.880;2023-08-06T08:25:51;19.20;70.10
55711;DHT22;41612;51.994;5.880;2023-08-06T08:28:22;19.30;69.90
55711;DHT22;41612;51.994;5.880;2023-08-06T08:30:55;19.30;69.60
55711;DHT22;41612;51.994;5.880;2023-08-06T08:33:26;19.40;69.50
55711;DHT22;41612;51.994;5.880;2023-08-06T08:35:54;19.50;69.30
55711;DHT22;41612;51.994;5.880;2023-08-06T08:38:33;19.60;69.20
55711;DHT22;41612;51.994;5.880;2023-08-06T08:41:12;19.70;68.70
55711;DHT22;41612;51.994;5.880;2023-08-06T08:43:42;19.70;68.50
55711;DHT22;41612;51.994;5.880;2023-08-06T08:46:09;19.70;68.50
55711;DHT22;41612;51.994;5.880;2023-08-06T08:48:37;19.70;68.70
55711;DHT22;41612;51.994;5.880;2023-08-06T08:51:06;19.70;68.70
55711;DHT22;41612;51.994;5.880;2023-08-06T08:53:35;19.80;68.70
55711;DHT22;41612;51.994;5.880;2023-08-06T08:56:05;19.90;68.40
55711;DHT22;41612;51.994;5.880;2023-08-06T08:58:36;20.00;68.00
55711;DHT22;41612;51.994;5.880;2023-08-06T09:01:17;20.20;67.60
55711;DHT22;41612;51.994;5.880;2023-08-06T09:03:48;20.20;67.40
55711;DHT22;41612;51.994;5.880;2023-08-06T09:06:21;20.30;67.00
55711;DHT22;41612;51.994;5.880;2023-08-06T09:09:12;20.30;66.90
55711;DHT22;41612;51.994;5.880;2023-08-06T09:11:50;20.20;67.10
55711;DHT22;41612;51.994;5.880;2023-08-06T09:17:18;20.20;67.40
55711;DHT22;41612;51.994;5.880;2023-08-06T09:19:49;20.20;67.60
55711;DHT22;41612;51.994;5.880;2023-08-06T09:22:41;20.00;68.10
55711;DHT22;41612;51.994;5.880;2023-08-06T09:25:09;19.90;68.20
55711;DHT22;41612;51.994;5.880;2023-08-06T09:27:46;19.70;68.70
55711;DHT22;41612;51.994;5.880;2023-08-06T09:30:19;19.60;69.30
55711;DHT22;41612;51.994;5.880;2023-08-06T09:33:08;19.40;69.70
55711;DHT22;41612;51.994;5.880;2023-08-06T09:35:43;19.30;70.10
55711;DHT22;41612;51.994;5.880;2023-08-06T09:38:17;19.30;70.50
55711;DHT22;41612;51.994;5.880;2023-08-06T09:40:47;19.30;70.80
55711;DHT22;41612;51.994;5.880;2023-08-06T09:46:14;19.40;70.40
55711;DHT22;41612;51.994;5.880;2023-08-06T09:48:59;19.40;70.60
55711;DHT22;41612;51.994;5.880;2023-08-06T09:51:30;19.40;70.70
55711;DHT22;41612;51.994;5.880;2023-08-06T09:54:04;19.30;71.00
55711;DHT22;41612;51.994;5.880;2023-08-06T09:56:37;19.20;71.50
55711;DHT22;41612;51.994;5.880;2023-08-06T09:59:11;19.10;71.80
55711;DHT22;41612;51.994;5.880;2023-08-06T10:01:46;19.00;72.20
55711;DHT22;41612;51.994;5.880;2023-08-06T10:04:15;18.90;72.50
55711;DHT22;41612;51.994;5.880;2023-08-06T10:06:52;18.90;72.70
55711;DHT22;41612;51.994;5.880;2023-08-06T10:09:24;18.80;72.90
55711;DHT22;41612;51.994;5.880;2023-08-06T10:11:59;18.80;73.10
55711;DHT22;41612;51.994;5.880;2023-08-06T10:14:40;18.70;73.40
55711;DHT22;41612;51.994;5.880;2023-08-06T10:17:15;18.60;73.70
55711;DHT22;41612;51.994;5.880;2023-08-06T10:19:56;18.50;73.90
55711;DHT22;41612;51.994;5.880;2023-08-06T10:23:03;18.50;74.20
55711;DHT22;41612;51.994;5.880;2023-08-06T10:25:36;18.50;74.40
55711;DHT22;41612;51.994;5.880;2023-08-06T10:28:11;18.30;74.70
55711;DHT22;41612;51.994;5.880;2023-08-06T10:30:47;18.30;75.00
55711;DHT22;41612;51.994;5.880;2023-08-06T10:33:22;18.20;75.50
55711;DHT22;41612;51.994;5.880;2023-08-06T10:35:49;18.10;75.70
55711;DHT22;41612;51.994;5.880;2023-08-06T10:38:20;18.00;76.10
55711;DHT22;41612;51.994;5.880;2023-08-06T10:41:03;17.80;76.30
55711;DHT22;41612;51.994;5.880;2023-08-06T10:43:34;17.70;76.90
55711;DHT22;41612;51.994;5.880;2023-08-06T10:46:04;17.70;77.10
55711;DHT22;41612;51.994;5.880;2023-08-06T10:48:44;17.60;77.40
55711;DHT22;41612;51.994;5.880;2023-08-06T10:51:18;17.50;77.60
55711;DHT22;41612;51.994;5.880;2023-08-06T10:53:49;17.50;77.90
55711;DHT22;41612;51.994;5.880;2023-08-06T10:56:49;17.40;78.00
55711;DHT22;41612;51.994;5.880;2023-08-06T10:59:30;17.30;78.20
55711;DHT22;41612;51.994;5.880;2023-08-06T11:02:03;17.30;78.50
55711;DHT22;41612;51.994;5.880;2023-08-06T11:04:39;17.30;78.60
55711;DHT22;41612;51.994;5.880;2023-08-06T11:07:08;17.20;78.60
55711;DHT22;41612;51.994;5.880;2023-08-06T11:09:41;17.30;78.70
55711;DHT22;41612;51.994;5.880;2023-08-06T11:12:20;17.30;78.70
55711;DHT22;41612;51.994;5.880;2023-08-06T11:15:15;17.20;78.70
55711;DHT22;41612;51.994;5.880;2023-08-06T11:17:46;17.20;78.70
55711;DHT22;41612;51.994;5.880;2023-08-06T11:20:16;17.20;78.60
55711;DHT22;41612;51.994;5.880;2023-08-06T11:22:48;17.20;78.70
55711;DHT22;41612;51.994;5.880;2023-08-06T11:25:29;17.20;78.60
55711;DHT22;41612;51.994;5.880;2023-08-06T11:28:06;17.30;78.60
55711;DHT22;41612;51.994;5.880;2023-08-06T11:30:47;17.30;78.40
55711;DHT22;41612;51.994;5.880;2023-08-06T11:33:28;17.30;78.20
55711;DHT22;41612;51.994;5.880;2023-08-06T11:36:03;17.40;78.10
55711;DHT22;41612;51.994;5.880;2023-08-06T11:38:32;17.40;78.00
55711;DHT22;41612;51.994;5.880;2023-08-06T11:41:24;17.40;77.90
55711;DHT22;41612;51.994;5.880;2023-08-06T11:44:01;17.40;77.80
55711;DHT22;41612;51.994;5.880;2023-08-06T11:46:35;17.40;77.90
55711;DHT22;41612;51.994;5.880;2023-08-06T11:49:13;17.30;77.90
55711;DHT22;41612;51.994;5.880;2023-08-06T11:51:39;17.30;78.10
55711;DHT22;41612;51.994;5.880;2023-08-06T11:54:08;17.30;78.10
55711;DHT22;41612;51.994;5.880;2023-08-06T11:56:33;17.30;78.20
55711;DHT22;41612;51.994;5.880;2023-08-06T11:59:01;17.30;78.20
55711;DHT22;41612;51.994;5.880;2023-08-06T12:01:43;17.30;78.20
55711;DHT22;41612;51.994;5.880;2023-08-06T12:04:13;17.20;78.30
55711;DHT22;41612;51.994;5.880;2023-08-06T12:06:44;17.20;78.40
55711;DHT22;41612;51.994;5.880;2023-08-06T12:09:15;17.20;78.40
55711;DHT22;41612;51.994;5.880;2023-08-06T12:11:42;17.20;78.50
55711;DHT22;41612;51.994;5.880;2023-08-06T12:14:17;17.10;78.70
55711;DHT22;41612;51.994;5.880;2023-08-06T12:16:49;17.00;78.90
55711;DHT22;41612;51.994;5.880;2023-08-06T12:19:17;17.00;79.00
55711;DHT22;41612;51.994;5.880;2023-08-06T12:21:45;16.90;79.30
55711;DHT22;41612;51.994;5.880;2023-08-06T12:24:12;16.80;79.50
55711;DHT22;41612;51.994;5.880;2023-08-06T12:26:57;16.80;79.50
55711;DHT22;41612;51.994;5.880;2023-08-06T12:29:25;16.80;79.60
55711;DHT22;41612;51.994;5.880;2023-08-06T12:31:56;16.80;79.60
55711;DHT22;41612;51.994;5.880;2023-08-06T12:34:25;16.80;79.60
55711;DHT22;41612;51.994;5.880;2023-08-06T12:36:51;16.80;79.70
55711;DHT22;41612;51.994;5.880;2023-08-06T12:39:17;16.80;79.70
55711;DHT22;41612;51.994;5.880;2023-08-06T12:41:44;16.80;79.70
55711;DHT22;41612;51.994;5.880;2023-08-06T12:44:12;16.70;79.80
55711;DHT22;41612;51.994;5.880;2023-08-06T12:46:38;16.70;79.90
55711;DHT22;41612;51.994;5.880;2023-08-06T12:49:03;16.70;79.90
55711;DHT22;41612;51.994;5.880;2023-08-06T12:51:29;16.70;80.00
55711;DHT22;41612;51.994;5.880;2023-08-06T12:53:55;16.70;80.10
55711;DHT22;41612;51.994;5.880;2023-08-06T12:56:21;16.70;80.10
55711;DHT22;41612;51.994;5.880;2023-08-06T12:58:47;16.70;80.20
55711;DHT22;41612;51.994;5.880;2023-08-06T13:01:14;16.60;80.30
55711;DHT22;41612;51.994;5.880;2023-08-06T13:03:45;16.60;80.40
55711;DHT22;41612;51.994;5.880;2023-08-06T13:06:11;16.50;80.50
55711;DHT22;41612;51.994;5.880;2023-08-06T13:08:38;16.50;80.40
55711;DHT22;41612;51.994;5.880;2023-08-06T13:11:04;16.50;80.40
55711;DHT22;41612;51.994;5.880;2023-08-06T13:13:31;16.60;80.50
55711;DHT22;41612;51.994;5.880;2023-08-06T13:15:59;16.60;80.50
55711;DHT22;41612;51.994;5.880;2023-08-06T13:18:26;16.60;80.40
55711;DHT22;41612;51.994;5.880;2023-08-06T13:20:53;16.50;80.40
55711;DHT22;41612;51.994;5.880;2023-08-06T13:23:20;16.50;80.50
55711;DHT22;41612;51.994;5.880;2023-08-06T13:25:47;16.50;80.50
55711;DHT22;41612;51.994;5.880;2023-08-06T13:28:12;16.50;80.40
55711;DHT22;41612;51.994;5.880;2023-08-06T13:30:41;16.50;80.30
55711;DHT22;41612;51.994;5.880;2023-08-06T13:33:08;16.50;80.30
55711;DHT22;41612;51.994;5.880;2023-08-06T13:35:34;16.60;80.20
55711;DHT22;41612;51.994;5.880;2023-08-06T13:40:39;16.60;80.20
55711;DHT22;41612;51.994;5.880;2023-08-06T13:43:04;16.60;80.20
55711;DHT22;41612;51.994;5.880;2023-08-06T13:45:33;16.60;80.20
55711;DHT22;41612;51.994;5.880;2023-08-06T13:48:00;16.60;80.20
55711;DHT22;41612;51.994;5.880;2023-08-06T13:50:28;16.60;80.10
55711;DHT22;41612;51.994;5.880;2023-08-06T13:52:54;16.60;80.10
55711;DHT22;41612;51.994;5.880;2023-08-06T13:55:21;16.60;80.00
55711;DHT22;41612;51.994;5.880;2023-08-06T13:57:48;16.60;79.90
55711;DHT22;41612;51.994;5.880;2023-08-06T14:00:14;16.70;79.70
55711;DHT22;41612;51.994;5.880;2023-08-06T14:02:41;16.70;79.80
55711;DHT22;41612;51.994;5.880;2023-08-06T14:05:13;16.70;79.70
55711;DHT22;41612;51.994;5.880;2023-08-06T14:07:41;16.70;79.60
55711;DHT22;41612;51.994;5.880;2023-08-06T14:10:07;16.70;79.50
55711;DHT22;41612;51.994;5.880;2023-08-06T14:12:34;16.80;79.30
55711;DHT22;41612;51.994;5.880;2023-08-06T14:15:00;16.80;79.20
55711;DHT22;41612;51.994;5.880;2023-08-06T14:17:26;16.80;79.00
55711;DHT22;41612;51.994;5.880;2023-08-06T14:19:52;16.90;78.70
55711;DHT22;41612;51.994;5.880;2023-08-06T14:22:22;16.90;78.90
55711;DHT22;41612;51.994;5.880;2023-08-06T14:24:51;16.90;78.70
55711;DHT22;41612;51.994;5.880;2023-08-06T14:27:21;16.90;78.60
55711;DHT22;41612;51.994;5.880;2023-08-06T14:29:47;16.90;78.50
55711;DHT22;41612;51.994;5.880;2023-08-06T14:32:15;17.00;78.40
55711;DHT22;41612;51.994;5.880;2023-08-06T14:34:48;17.00;78.30
55711;DHT22;41612;51.994;5.880;2023-08-06T14:37:14;17.00;78.20
55711;DHT22;41612;51.994;5.880;2023-08-06T14:39:43;17.00;78.20
55711;DHT22;41612;51.994;5.880;2023-08-06T14:42:09;17.00;78.20
55711;DHT22;41612;51.994;5.880;2023-08-06T14:44:35;17.00;78.20
55711;DHT22;41612;51.994;5.880;2023-08-06T14:47:03;17.10;78.10
55711;DHT22;41612;51.994;5.880;2023-08-06T14:49:34;17.10;78.10
55711;DHT22;41612;51.994;5.880;2023-08-06T14:52:03;17.00;78.20
55711;DHT22;41612;51.994;5.880;2023-08-06T14:54:31;17.10;78.40
55711;DHT22;41612;51.994;5.880;2023-08-06T14:57:05;17.00;78.30
55711;DHT22;41612;51.994;5.880;2023-08-06T14:59:36;17.10;78.10
55711;DHT22;41612;51.994;5.880;2023-08-06T15:02:08;17.00;78.60
55711;DHT22;41612;51.994;5.880;2023-08-06T15:04:39;17.10;78.40
55711;DHT22;41612;51.994;5.880;2023-08-06T15:07:05;17.10;78.10
55711;DHT22;41612;51.994;5.880;2023-08-06T15:09:38;17.20;78.10
55711;DHT22;41612;51.994;5.880;2023-08-06T15:12:05;17.20;78.00
55711;DHT22;41612;51.994;5.880;2023-08-06T15:14:32;17.30;77.70
55711;DHT22;41612;51.994;5.880;2023-08-06T15:16:59;17.30;77.30
55711;DHT22;41612;51.994;5.880;2023-08-06T15:19:27;17.40;77.20
55711;DHT22;41612;51.994;5.880;2023-08-06T15:21:55;17.50;77.00
55711;DHT22;41612;51.994;5.880;2023-08-06T15:24:22;17.50;76.80
55711;DHT22;41612;51.994;5.880;2023-08-06T15:27:04;17.60;77.00
55711;DHT22;41612;51.994;5.880;2023-08-06T15:29:46;17.60;76.40
55711;DHT22;41612;51.994;5.880;2023-08-06T15:32:17;17.70;76.30
55711;DHT22;41612;51.994;5.880;2023-08-06T15:34:51;17.70;76.40
55711;DHT22;41612;51.994;5.880;2023-08-06T15:37:22;17.70;76.30
55711;DHT22;41612;51.994;5.880;2023-08-06T15:39:53;17.80;76.20
55711;DHT22;41612;51.994;5.880;2023-08-06T15:42:19;17.80;75.80
55711;DHT22;41612;51.994;5.880;2023-08-06T15:44:44;17.90;75.90
55711;DHT22;41612;51.994;5.880;2023-08-06T15:47:14;17.90;75.90
55711;DHT22;41612;51.994;5.880;2023-08-06T15:49:42;18.00;76.50
55711;DHT22;41612;51.994;5.880;2023-08-06T15:52:09;17.90;75.70
55711;DHT22;41612;51.994;5.880;2023-08-06T15:54:35;17.90;76.30
55711;DHT22;41612;51.994;5.880;2023-08-06T15:57:02;17.90;76.60
55711;DHT22;41612;51.994;5.880;2023-08-06T15:59:30;17.80;76.50
55711;DHT22;41612;51.994;5.880;2023-08-06T16:01:58;17.80;75.80
55711;DHT22;41612;51.994;5.880;2023-08-06T16:04:28;17.70;76.10
55711;DHT22;41612;51.994;5.880;2023-08-06T16:06:54;17.60;76.20
55711;DHT22;41612;51.994;5.880;2023-08-06T16:09:20;17.50;76.40
55711;DHT22;41612;51.994;5.880;2023-08-06T16:11:50;17.40;76.80
55711;DHT22;41612;51.994;5.880;2023-08-06T16:14:17;17.50;76.70
55711;DHT22;41612;51.994;5.880;2023-08-06T16:16:42;17.40;76.70
55711;DHT22;41612;51.994;5.880;2023-08-06T16:19:11;17.50;76.60
55711;DHT22;41612;51.994;5.880;2023-08-06T16:21:46;17.50;76.60
55711;DHT22;41612;51.994;5.880;2023-08-06T16:24:13;17.60;76.40
55711;DHT22;41612;51.994;5.880;2023-08-06T16:26:39;17.70;76.20
55711;DHT22;41612;51.994;5.880;2023-08-06T16:29:05;17.70;76.10
55711;DHT22;41612;51.994;5.880;2023-08-06T16:31:31;17.70;76.10
55711;DHT22;41612;51.994;5.880;2023-08-06T16:33:56;17.70;75.90
55711;DHT22;41612;51.994;5.880;2023-08-06T16:36:25;17.70;75.90
55711;DHT22;41612;51.994;5.880;2023-08-06T16:44:20;17.50;76.40
55711;DHT22;41612;51.994;5.880;2023-08-06T16:46:50;17.50;76.60
55711;DHT22;41612;51.994;5.880;2023-08-06T16:49:19;17.40;76.80
55711;DHT22;41612;51.994;5.880;2023-08-06T16:51:51;17.30;76.90
55711;DHT22;41612;51.994;5.880;2023-08-06T16:54:17;17.40;76.90
55711;DHT22;41612;51.994;5.880;2023-08-06T16:56:50;17.30;76.90
55711;DHT22;41612;51.994;5.880;2023-08-06T16:59:39;17.40;77.00
55711;DHT22;41612;51.994;5.880;2023-08-06T17:02:12;17.30;76.90
55711;DHT22;41612;51.994;5.880;2023-08-06T17:04:45;17.30;77.00
55711;DHT22;41612;51.994;5.880;2023-08-06T17:10:46;17.20;77.40
55711;DHT22;41612;51.994;5.880;2023-08-06T17:13:19;17.10;77.70